Terminal Aerodrome Forecast
Issued by NWS

Home | Current Version | Previous Version | Text Only | Print | Product List | Glossary On
Versions: 1 2 3 4 5 6 7 8 9 10 11 12 13
000
FTUS42 TJSJ 271741
TAFJMZ
TAF
TJMZ 271741Z 2718/2818 24010KT P6SM VCTS SCT025 BKN040CB
     FM272300 08005KT P6SM FEW025 SCT070
     FM281530 27010KT P6SM VCTS SCT025CB BKN040
      AMD NOT SKED=

USA.gov is the U.S. government's official web portal to all federal, state and local government web resources and services.